createdAt,value
2022-08-17T00:00:43.645Z,19.76
2022-08-17T00:03:20.779Z,19.73
2022-08-17T00:05:55.635Z,19.79
2022-08-17T00:08:30.754Z,19.77
2022-08-17T00:10:59.711Z,19.75
2022-08-17T00:13:27.727Z,19.76
2022-08-17T00:16:08.830Z,19.77
2022-08-17T00:19:01.979Z,19.80
2022-08-17T00:21:25.588Z,19.83
2022-08-17T00:23:54.883Z,19.84
2022-08-17T00:26:44.855Z,19.83
2022-08-17T00:29:19.385Z,19.82
2022-08-17T00:31:48.044Z,19.87
2022-08-17T00:34:16.444Z,19.83
2022-08-17T00:36:44.158Z,19.83
2022-08-17T00:39:11.913Z,19.90
2022-08-17T00:41:42.170Z,19.87
2022-08-17T00:44:12.288Z,19.85
2022-08-17T00:46:44.043Z,19.86
2022-08-17T00:49:14.390Z,20.04
2022-08-17T00:51:44.642Z,20.11
2022-08-17T00:54:27.210Z,20.08
2022-08-17T00:57:00.770Z,20.02
2022-08-17T00:59:40.016Z,19.95
2022-08-17T01:02:12.621Z,19.92
2022-08-17T01:04:42.476Z,19.92
2022-08-17T01:07:12.197Z,19.84
2022-08-17T01:09:41.515Z,19.81
2022-08-17T01:12:10.815Z,19.89
2022-08-17T01:14:39.847Z,19.73
2022-08-17T01:17:09.335Z,19.70
2022-08-17T01:19:42.080Z,19.74
2022-08-17T01:22:12.938Z,19.60
2022-08-17T01:24:57.620Z,19.48
2022-08-17T01:27:27.445Z,19.42
2022-08-17T01:30:00.265Z,19.49
2022-08-17T01:32:30.486Z,19.47
2022-08-17T01:34:58.974Z,19.42
2022-08-17T01:37:35.375Z,19.34
2022-08-17T01:40:13.077Z,19.25
2022-08-17T01:43:11.433Z,19.21
2022-08-17T01:45:46.347Z,19.25
2022-08-17T01:48:14.495Z,19.24
2022-08-17T01:50:44.582Z,19.30
2022-08-17T01:53:36.837Z,19.34
2022-08-17T01:56:12.175Z,19.40
2022-08-17T01:58:42.944Z,19.43
2022-08-17T02:01:14.268Z,19.55
2022-08-17T02:03:56.304Z,19.66
2022-08-17T02:06:47.115Z,19.63
2022-08-17T02:09:29.914Z,19.69
2022-08-17T02:12:47.437Z,19.68
2022-08-17T02:14:48.306Z,19.77
2022-08-17T02:17:16.518Z,19.93
2022-08-17T02:19:44.300Z,19.87
2022-08-17T02:22:12.271Z,19.77
2022-08-17T02:24:58.256Z,19.67
2022-08-17T02:27:28.663Z,19.65
2022-08-17T02:29:57.669Z,19.63
2022-08-17T02:32:27.871Z,19.53
2022-08-17T02:34:58.137Z,19.48
2022-08-17T02:37:27.943Z,19.38
2022-08-17T02:39:59.588Z,19.30
2022-08-17T02:42:34.137Z,19.27
2022-08-17T02:45:05.242Z,19.27
2022-08-17T02:47:34.046Z,19.34
2022-08-17T02:50:02.115Z,19.34
2022-08-17T02:52:42.797Z,19.35
2022-08-17T02:55:20.966Z,19.35
2022-08-17T02:57:49.399Z,19.36
2022-08-17T03:00:28.930Z,19.33
2022-08-17T03:02:57.979Z,19.29
2022-08-17T03:05:30.856Z,19.23
2022-08-17T03:07:58.769Z,19.25
2022-08-17T03:10:27.278Z,19.19
2022-08-17T03:12:55.813Z,19.31
2022-08-17T03:15:30.519Z,19.36
2022-08-17T03:18:00.385Z,19.32
2022-08-17T03:20:30.700Z,19.37
2022-08-17T03:23:03.004Z,19.39
2022-08-17T03:25:38.028Z,19.27
2022-08-17T03:28:07.455Z,19.22
2022-08-17T03:30:36.876Z,19.30
2022-08-17T03:33:07.213Z,19.33
2022-08-17T03:35:37.732Z,19.27
2022-08-17T03:38:07.497Z,19.25
2022-08-17T03:40:58.908Z,19.26
2022-08-17T03:43:24.063Z,19.29
2022-08-17T03:46:33.899Z,19.26
2022-08-17T03:49:17.777Z,19.33
2022-08-17T03:52:04.227Z,19.22
2022-08-17T03:54:51.009Z,19.21
2022-08-17T03:57:19.353Z,19.27
2022-08-17T03:59:47.891Z,19.26
2022-08-17T04:02:33.248Z,19.24
2022-08-17T04:05:01.868Z,19.25
2022-08-17T04:07:31.047Z,19.25
2022-08-17T04:09:59.562Z,19.33
2022-08-17T04:12:31.217Z,19.39
2022-08-17T04:14:59.543Z,19.44
2022-08-17T04:17:29.394Z,19.45
2022-08-17T04:19:58.102Z,19.49
2022-08-17T04:22:31.454Z,19.57
2022-08-17T04:25:09.928Z,19.64
2022-08-17T04:27:37.816Z,19.69
2022-08-17T04:30:07.495Z,19.76
2022-08-17T04:33:19.197Z,19.79
2022-08-17T04:35:47.732Z,19.90
2022-08-17T04:38:18.792Z,19.97
2022-08-17T04:41:05.939Z,20.08
2022-08-17T04:43:35.270Z,20.19
2022-08-17T04:46:09.098Z,20.28
2022-08-17T04:48:42.832Z,20.34
2022-08-17T04:51:19.963Z,20.45
2022-08-17T04:53:54.894Z,20.52
2022-08-17T04:56:25.969Z,20.64
2022-08-17T04:58:56.644Z,20.75
2022-08-17T05:01:28.119Z,20.84
2022-08-17T05:04:02.357Z,20.86
2022-08-17T05:06:50.332Z,21.00
2022-08-17T05:09:19.075Z,21.08
2022-08-17T05:11:47.057Z,21.30
2022-08-17T05:14:15.145Z,21.42
2022-08-17T05:16:43.178Z,21.59
2022-08-17T05:19:11.008Z,21.82
2022-08-17T05:21:39.130Z,22.03
2022-08-17T05:24:07.192Z,22.21
2022-08-17T05:26:55.105Z,22.58
2022-08-17T05:29:23.247Z,22.72
2022-08-17T05:32:38.322Z,22.98
2022-08-17T05:35:00.533Z,23.24
2022-08-17T05:37:29.156Z,23.30
2022-08-17T05:39:57.231Z,23.27
2022-08-17T05:42:25.218Z,23.35
2022-08-17T05:44:56.681Z,23.52
2022-08-17T05:47:26.927Z,23.49
2022-08-17T05:49:55.624Z,23.71
2022-08-17T05:52:44.853Z,23.74
2022-08-17T05:55:50.756Z,23.90
2022-08-17T05:58:39.006Z,24.12
2022-08-17T06:01:20.955Z,24.28
2022-08-17T06:03:48.810Z,24.43
2022-08-17T06:06:40.719Z,24.23
2022-08-17T06:09:33.022Z,24.29
2022-08-17T06:12:07.763Z,24.44
2022-08-17T06:15:03.906Z,24.65
2022-08-17T06:17:33.204Z,24.56
2022-08-17T06:20:14.767Z,24.52
2022-08-17T06:22:50.691Z,24.84
2022-08-17T06:25:33.788Z,25.13
2022-08-17T06:28:14.770Z,25.45
2022-08-17T06:30:59.743Z,25.97
2022-08-17T06:33:38.477Z,26.28
2022-08-17T06:36:15.943Z,26.58
2022-08-17T06:38:57.327Z,26.86
2022-08-17T06:41:45.703Z,26.74
2022-08-17T06:44:50.249Z,26.76
2022-08-17T06:47:28.766Z,26.56
2022-08-17T06:50:22.156Z,26.73
2022-08-17T06:53:01.642Z,27.09
2022-08-17T06:55:38.422Z,27.42
2022-08-17T06:58:16.492Z,27.72
2022-08-17T07:00:47.732Z,27.81
2022-08-17T07:03:47.968Z,27.89
2022-08-17T07:06:19.954Z,27.79
2022-08-17T07:08:56.589Z,27.73
2022-08-17T07:11:48.163Z,28.00
2022-08-17T07:14:24.624Z,28.29
2022-08-17T07:16:56.244Z,29.48
2022-08-17T07:19:31.869Z,30.58
2022-08-17T07:22:11.470Z,30.39
2022-08-17T07:24:45.231Z,30.00
2022-08-17T07:27:21.431Z,29.20
2022-08-17T07:30:00.916Z,28.95
2022-08-17T07:32:46.434Z,28.75
2022-08-17T07:35:37.942Z,28.85
2022-08-17T07:38:26.918Z,28.69
2022-08-17T07:40:58.122Z,29.34
2022-08-17T07:43:39.370Z,31.23
2022-08-17T07:46:35.335Z,33.68
2022-08-17T07:49:03.667Z,36.24
2022-08-17T07:51:39.328Z,37.51
2022-08-17T07:54:16.770Z,36.25
2022-08-17T07:57:13.349Z,37.19
2022-08-17T08:00:16.132Z,38.02
2022-08-17T08:02:47.802Z,37.44
2022-08-17T08:05:49.276Z,35.78
2022-08-17T08:08:25.487Z,33.54
2022-08-17T08:11:27.978Z,32.63
2022-08-17T08:13:58.522Z,31.87
2022-08-17T08:16:29.817Z,32.83
2022-08-17T08:19:00.534Z,35.41
2022-08-17T08:21:42.204Z,37.75
2022-08-17T08:24:10.945Z,39.66
2022-08-17T08:26:50.202Z,41.03
2022-08-17T08:29:46.279Z,41.66
2022-08-17T08:32:42.914Z,42.82
2022-08-17T08:35:26.827Z,42.12
2022-08-17T08:38:20.194Z,40.14
2022-08-17T08:41:25.494Z,38.88
2022-08-17T08:44:05.031Z,37.27
2022-08-17T08:46:58.654Z,37.06
2022-08-17T08:50:03.491Z,37.58
2022-08-17T08:52:48.401Z,37.64
2022-08-17T08:55:34.470Z,38.12
2022-08-17T08:58:32.289Z,35.26
2022-08-17T09:01:25.473Z,33.47
2022-08-17T09:04:25.824Z,33.41
2022-08-17T09:07:15.548Z,33.84
2022-08-17T09:09:59.206Z,35.59
2022-08-17T09:12:44.401Z,37.63
2022-08-17T09:15:22.166Z,39.02
2022-08-17T09:19:01.090Z,40.09
2022-08-17T09:21:34.817Z,41.55
2022-08-17T09:24:12.829Z,41.88
2022-08-17T09:26:51.305Z,42.16
2022-08-17T09:29:24.442Z,42.60
2022-08-17T09:32:03.740Z,42.95
2022-08-17T09:34:48.355Z,42.43
2022-08-17T09:37:46.867Z,40.33
2022-08-17T09:40:44.090Z,38.24
2022-08-17T09:43:41.203Z,36.50
2022-08-17T09:46:34.297Z,36.05
2022-08-17T09:49:23.159Z,37.00
2022-08-17T09:52:03.310Z,38.12
2022-08-17T09:54:38.977Z,38.89
2022-08-17T09:57:30.184Z,38.30
2022-08-17T10:00:16.782Z,38.66
2022-08-17T10:02:56.961Z,36.90
2022-08-17T10:06:21.623Z,35.30
2022-08-17T10:09:13.689Z,33.96
2022-08-17T10:12:23.025Z,33.30
2022-08-17T10:15:09.838Z,32.63
2022-08-17T10:17:46.953Z,33.76
2022-08-17T10:20:30.905Z,34.95
2022-08-17T10:23:46.648Z,34.55
2022-08-17T10:26:25.035Z,33.90
2022-08-17T10:29:06.787Z,33.24
2022-08-17T10:31:42.652Z,33.09
2022-08-17T10:34:25.374Z,32.70
2022-08-17T10:37:15.140Z,32.19
2022-08-17T10:39:54.725Z,32.46
2022-08-17T10:42:32.799Z,32.62
2022-08-17T10:45:28.172Z,33.05
2022-08-17T10:48:06.245Z,33.08
2022-08-17T10:50:57.744Z,33.16
2022-08-17T10:53:40.764Z,33.00
2022-08-17T10:56:14.695Z,32.81
2022-08-17T10:58:59.195Z,32.09
2022-08-17T11:01:32.319Z,31.37
2022-08-17T11:04:17.679Z,31.26
2022-08-17T11:07:41.584Z,30.76
2022-08-17T11:10:54.804Z,30.52
2022-08-17T11:14:06.890Z,30.75
2022-08-17T11:16:53.743Z,30.57
2022-08-17T11:19:39.468Z,30.70
2022-08-17T11:22:29.971Z,31.05
2022-08-17T11:25:20.361Z,31.59
2022-08-17T11:28:04.375Z,32.07
2022-08-17T11:30:47.045Z,32.01
2022-08-17T11:33:36.855Z,32.05
2022-08-17T11:36:14.540Z,31.74
2022-08-17T11:39:13.256Z,31.35
2022-08-17T11:42:05.916Z,31.26
2022-08-17T11:44:52.796Z,30.97
2022-08-17T11:48:27.983Z,30.81
2022-08-17T11:51:18.027Z,30.73
2022-08-17T11:53:46.069Z,30.87
2022-08-17T11:56:34.787Z,30.67
2022-08-17T11:59:23.149Z,30.50
2022-08-17T12:01:55.840Z,30.23
2022-08-17T12:04:30.603Z,30.23
2022-08-17T12:07:17.742Z,30.26
2022-08-17T12:09:50.960Z,30.15
2022-08-17T12:12:33.011Z,29.89
2022-08-17T12:15:10.497Z,29.76
2022-08-17T12:17:42.647Z,29.79
2022-08-17T12:20:23.482Z,29.76
2022-08-17T12:22:56.589Z,30.25
2022-08-17T12:25:51.450Z,30.99
2022-08-17T12:28:33.268Z,31.49
2022-08-17T12:31:07.273Z,31.56
2022-08-17T12:33:37.415Z,31.50
2022-08-17T12:36:08.703Z,31.56
2022-08-17T12:38:38.135Z,31.59
2022-08-17T12:41:26.598Z,31.35
2022-08-17T12:44:23.194Z,30.97
2022-08-17T12:46:59.760Z,31.17
2022-08-17T12:49:34.249Z,31.24
2022-08-17T12:52:23.681Z,31.09
2022-08-17T12:55:25.582Z,31.00
2022-08-17T12:58:01.846Z,30.83
2022-08-17T13:00:34.783Z,30.62
2022-08-17T13:03:13.225Z,30.58
2022-08-17T13:06:03.251Z,30.39
2022-08-17T13:08:36.646Z,30.29
2022-08-17T13:11:29.511Z,30.24
2022-08-17T13:14:08.347Z,30.45
2022-08-17T13:16:36.394Z,30.27
2022-08-17T13:19:12.818Z,30.00
2022-08-17T13:22:04.343Z,29.84
2022-08-17T13:24:38.572Z,29.67
2022-08-17T13:27:11.819Z,29.60
2022-08-17T13:29:45.343Z,29.92
2022-08-17T13:32:43.967Z,30.35
2022-08-17T13:35:39.839Z,30.71
2022-08-17T13:38:15.470Z,30.91
2022-08-17T13:40:53.163Z,30.94
2022-08-17T13:43:45.061Z,30.97
2022-08-17T13:46:19.708Z,31.05
2022-08-17T13:49:09.529Z,30.99
2022-08-17T13:51:44.640Z,30.73
2022-08-17T13:54:40.099Z,31.02
2022-08-17T13:57:23.285Z,30.98
2022-08-17T14:00:05.958Z,30.90
2022-08-17T14:02:35.936Z,30.87
2022-08-17T14:05:06.388Z,30.63
2022-08-17T14:07:39.928Z,30.40
2022-08-17T14:10:17.438Z,30.15
2022-08-17T14:12:45.819Z,29.82
2022-08-17T14:15:16.448Z,29.62
2022-08-17T14:17:44.192Z,29.40
2022-08-17T14:20:13.441Z,29.31
2022-08-17T14:22:46.370Z,29.13
2022-08-17T14:25:19.607Z,29.04
2022-08-17T14:27:53.564Z,28.88
2022-08-17T14:30:29.889Z,28.84
2022-08-17T14:32:58.784Z,28.71
2022-08-17T14:35:28.855Z,28.58
2022-08-17T14:37:57.189Z,28.57
2022-08-17T14:40:25.806Z,28.41
2022-08-17T14:42:55.483Z,28.38
2022-08-17T14:45:30.336Z,28.34
2022-08-17T14:48:07.721Z,28.51
2022-08-17T14:50:38.834Z,28.85
2022-08-17T14:53:08.774Z,29.03
2022-08-17T14:55:39.942Z,28.94
2022-08-17T14:58:09.105Z,28.78
2022-08-17T15:00:37.832Z,29.08
2022-08-17T15:03:05.638Z,29.17
2022-08-17T15:05:36.611Z,29.35
2022-08-17T15:08:05.896Z,29.58
2022-08-17T15:10:35.505Z,29.77
2022-08-17T15:13:03.334Z,29.91
2022-08-17T15:15:31.531Z,30.14
2022-08-17T15:18:00.063Z,30.16
2022-08-17T15:20:29.831Z,30.27
2022-08-17T15:22:59.056Z,30.17
2022-08-17T15:25:29.411Z,30.05
2022-08-17T15:27:57.269Z,30.01
2022-08-17T15:30:26.555Z,29.89
2022-08-17T15:32:57.428Z,29.71
2022-08-17T15:35:29.081Z,29.48
2022-08-17T15:38:07.845Z,29.31
2022-08-17T15:40:45.139Z,29.08
2022-08-17T15:43:28.222Z,28.83
2022-08-17T15:46:12.564Z,28.51
2022-08-17T15:48:42.444Z,28.27
2022-08-17T15:51:23.383Z,27.99
2022-08-17T15:53:57.214Z,27.81
2022-08-17T15:56:26.126Z,27.80
2022-08-17T15:58:55.228Z,27.82
2022-08-17T16:02:14.269Z,27.76
2022-08-17T16:04:26.958Z,27.70
2022-08-17T16:07:00.028Z,27.70
2022-08-17T16:09:28.553Z,27.73
2022-08-17T16:11:56.643Z,27.87
2022-08-17T16:14:32.423Z,27.79
2022-08-17T16:17:04.596Z,27.81
2022-08-17T16:19:34.279Z,27.74
2022-08-17T16:22:02.596Z,27.61
2022-08-17T16:24:31.370Z,27.49
2022-08-17T16:26:59.123Z,27.40
2022-08-17T16:29:26.815Z,27.33
2022-08-17T16:31:54.934Z,27.28
2022-08-17T16:34:22.705Z,27.17
2022-08-17T16:36:55.167Z,27.07
2022-08-17T16:39:27.177Z,27.01
2022-08-17T16:41:56.096Z,27.07
2022-08-17T16:44:25.839Z,26.97
2022-08-17T16:46:53.776Z,26.86
2022-08-17T16:49:31.539Z,26.83
2022-08-17T16:52:10.399Z,26.76
2022-08-17T16:54:43.832Z,26.63
2022-08-17T16:57:13.355Z,26.61
2022-08-17T16:59:44.928Z,26.46
2022-08-17T17:02:23.621Z,26.38
2022-08-17T17:05:16.062Z,26.31
2022-08-17T17:08:03.345Z,26.13
2022-08-17T17:10:38.745Z,26.07
2022-08-17T17:13:17.108Z,26.07
2022-08-17T17:15:44.788Z,26.04
2022-08-17T17:18:14.840Z,25.92
2022-08-17T17:20:54.806Z,25.80
2022-08-17T17:23:44.821Z,25.71
2022-08-17T17:26:49.290Z,25.55
2022-08-17T17:29:26.744Z,25.42
2022-08-17T17:32:17.283Z,25.34
2022-08-17T17:34:50.911Z,25.16
2022-08-17T17:37:26.159Z,25.01
2022-08-17T17:39:59.841Z,24.97
2022-08-17T17:42:31.496Z,24.81
2022-08-17T17:45:08.715Z,24.67
2022-08-17T17:47:36.656Z,24.55
2022-08-17T17:50:06.425Z,24.44
2022-08-17T17:52:47.415Z,24.31
2022-08-17T17:55:43.406Z,24.15
2022-08-17T17:58:32.044Z,24.03
2022-08-17T18:01:24.578Z,23.92
2022-08-17T18:04:20.634Z,23.94
2022-08-17T18:06:51.965Z,23.97
2022-08-17T18:09:51.937Z,23.95
2022-08-17T18:12:37.228Z,23.96
2022-08-17T18:15:13.727Z,23.87
2022-08-17T18:18:02.886Z,23.75
2022-08-17T18:20:43.209Z,23.66
2022-08-17T18:23:23.165Z,23.71
2022-08-17T18:25:56.612Z,23.59
2022-08-17T18:28:26.780Z,23.40
2022-08-17T18:31:20.077Z,23.25
2022-08-17T18:34:45.518Z,23.04
2022-08-17T18:37:05.198Z,22.92
2022-08-17T18:39:33.821Z,22.93
2022-08-17T18:42:03.860Z,22.77
2022-08-17T18:44:43.966Z,22.66
2022-08-17T18:47:14.647Z,22.60
2022-08-17T18:50:10.824Z,22.48
2022-08-17T18:52:38.747Z,22.35
2022-08-17T18:55:08.482Z,22.26
2022-08-17T18:58:07.662Z,22.17
2022-08-17T19:00:38.298Z,22.05
2022-08-17T19:03:18.045Z,22.03
2022-08-17T19:05:52.369Z,21.98
2022-08-17T19:08:20.239Z,22.08
2022-08-17T19:10:58.415Z,22.01
2022-08-17T19:13:35.436Z,21.94
2022-08-17T19:16:17.716Z,21.84
2022-08-17T19:18:53.833Z,21.79
2022-08-17T19:21:34.441Z,21.87
2022-08-17T19:24:11.714Z,21.97
2022-08-17T19:26:55.457Z,21.93
2022-08-17T19:29:51.805Z,21.89
2022-08-17T19:32:26.287Z,21.92
2022-08-17T19:34:55.105Z,21.72
2022-08-17T19:37:44.742Z,21.61
2022-08-17T19:43:50.487Z,21.42
2022-08-17T19:46:26.170Z,21.32
2022-08-17T19:49:08.543Z,21.28
2022-08-17T19:52:22.439Z,21.19
2022-08-17T19:55:31.554Z,21.13
2022-08-17T19:58:19.175Z,21.08
2022-08-17T20:00:53.497Z,20.99
2022-08-17T20:03:35.075Z,20.96
2022-08-17T20:06:13.029Z,20.92
2022-08-17T20:09:14.650Z,20.89
2022-08-17T20:11:49.227Z,20.85
2022-08-17T20:14:36.289Z,20.80
2022-08-17T20:17:05.847Z,20.73
2022-08-17T20:19:53.334Z,20.76
2022-08-17T20:22:52.486Z,20.69
2022-08-17T20:25:32.420Z,20.64
2022-08-17T20:28:27.877Z,20.65
2022-08-17T20:30:56.275Z,20.61
2022-08-17T20:33:25.860Z,20.61
2022-08-17T20:36:22.717Z,20.58
2022-08-17T20:38:57.347Z,20.51
2022-08-17T20:41:27.933Z,20.49
2022-08-17T20:43:59.231Z,20.48
2022-08-17T20:46:29.773Z,20.47
2022-08-17T20:49:24.330Z,20.50
2022-08-17T20:52:02.420Z,20.56
2022-08-17T20:54:42.796Z,20.58
2022-08-17T20:57:31.412Z,20.63
2022-08-17T21:00:34.137Z,20.67
2022-08-17T21:03:50.612Z,20.73
2022-08-17T21:06:22.567Z,20.76
2022-08-17T21:08:55.457Z,20.87
2022-08-17T21:12:02.640Z,20.83
2022-08-17T21:14:22.057Z,20.80
2022-08-17T21:17:12.160Z,20.75
2022-08-17T21:20:10.327Z,20.86
2022-08-17T21:23:20.429Z,20.94
2022-08-17T21:25:58.347Z,20.82
2022-08-17T21:29:00.819Z,20.78
2022-08-17T21:31:29.246Z,20.74
2022-08-17T21:34:16.232Z,20.88
2022-08-17T21:36:45.835Z,20.92
2022-08-17T21:39:16.428Z,20.97
2022-08-17T21:41:55.749Z,20.91
2022-08-17T21:44:35.177Z,20.79
2022-08-17T21:47:32.356Z,20.80
2022-08-17T21:50:17.642Z,20.80
2022-08-17T21:52:46.017Z,20.83
2022-08-17T21:55:28.324Z,20.86
2022-08-17T21:58:13.955Z,20.89
2022-08-17T22:00:44.734Z,21.01
2022-08-17T22:03:25.951Z,21.06
2022-08-17T22:05:53.968Z,21.03
2022-08-17T22:08:24.323Z,20.99
2022-08-17T22:11:00.151Z,20.96
2022-08-17T22:13:29.721Z,20.97
2022-08-17T22:16:15.323Z,21.11
2022-08-17T22:18:58.985Z,21.22
2022-08-17T22:21:27.473Z,21.19
2022-08-17T22:24:18.011Z,21.10
2022-08-17T22:27:05.087Z,20.93
2022-08-17T22:29:58.469Z,20.74
2022-08-17T22:32:41.487Z,20.56
2022-08-17T22:35:34.708Z,20.42
2022-08-17T22:38:21.195Z,20.31
2022-08-17T22:41:34.693Z,20.23
2022-08-17T22:44:17.752Z,20.17
2022-08-17T22:46:55.358Z,20.17
2022-08-17T22:49:53.904Z,20.12
2022-08-17T22:52:33.430Z,20.04
2022-08-17T22:55:40.970Z,19.96
2022-08-17T22:58:33.961Z,19.89
2022-08-17T23:01:23.597Z,19.85
2022-08-17T23:04:06.321Z,19.81
2022-08-17T23:06:37.901Z,19.71
2022-08-17T23:09:06.967Z,19.70
2022-08-17T23:11:58.675Z,19.70
2022-08-17T23:14:31.730Z,19.69
2022-08-17T23:17:00.909Z,19.63
2022-08-17T23:19:32.068Z,19.58
2022-08-17T23:22:01.845Z,19.57
2022-08-17T23:24:33.135Z,19.47
2022-08-17T23:27:00.793Z,19.47
2022-08-17T23:29:29.618Z,19.52
2022-08-17T23:32:00.102Z,19.45
2022-08-17T23:34:29.007Z,19.38
2022-08-17T23:36:57.425Z,19.34
2022-08-17T23:39:27.966Z,19.26
2022-08-17T23:42:01.026Z,19.29
2022-08-17T23:44:31.033Z,19.21
2022-08-17T23:46:58.822Z,19.18
2022-08-17T23:49:26.589Z,19.11
2022-08-17T23:51:55.242Z,19.08
2022-08-17T23:54:46.508Z,19.26
2022-08-17T23:57:19.458Z,19.21
2022-08-17T23:59:47.269Z,19.13
